sensor_id;sensor_type;location;lat;lon;timestamp;pressure;altitude;pressure_sealevel;temperature;humidity
42003;BME280;27693;50.506;30.832;2022-10-12T00:00:14;100351.19;;;8.19;61.65
42003;BME280;27693;50.506;30.832;2022-10-12T00:01:16;100357.21;;;8.20;61.78
42003;BME280;27693;50.506;30.832;2022-10-12T00:02:18;100351.98;;;8.21;61.89
42003;BME280;27693;50.506;30.832;2022-10-12T00:03:21;100351.05;;;8.24;62.07
42003;BME280;27693;50.506;30.832;2022-10-12T00:04:23;100351.86;;;8.26;62.08
42003;BME280;27693;50.506;30.832;2022-10-12T00:05:24;100354.50;;;8.24;62.38
42003;BME280;27693;50.506;30.832;2022-10-12T00:06:26;100350.93;;;8.28;62.31
42003;BME280;27693;50.506;30.832;2022-10-12T00:07:28;100353.50;;;8.30;62.47
42003;BME280;27693;50.506;30.832;2022-10-12T00:08:30;100351.80;;;8.29;62.47
42003;BME280;27693;50.506;30.832;2022-10-12T00:09:32;100350.98;;;8.27;62.69
42003;BME280;27693;50.506;30.832;2022-10-12T00:10:39;100356.09;;;8.30;62.84
42003;BME280;27693;50.506;30.832;2022-10-12T00:11:42;100357.94;;;8.25;63.04
42003;BME280;27693;50.506;30.832;2022-10-12T00:12:44;100351.96;;;8.23;63.22
42003;BME280;27693;50.506;30.832;2022-10-12T00:13:46;100358.87;;;8.22;63.37
42003;BME280;27693;50.506;30.832;2022-10-12T00:14:49;100355.50;;;8.19;63.68
42003;BME280;27693;50.506;30.832;2022-10-12T00:15:51;100355.55;;;8.17;63.82
42003;BME280;27693;50.506;30.832;2022-10-12T00:16:53;100357.21;;;8.20;63.85
42003;BME280;27693;50.506;30.832;2022-10-12T00:17:55;100352.89;;;8.20;63.90
42003;BME280;27693;50.506;30.832;2022-10-12T00:18:57;100352.89;;;8.20;63.90
42003;BME280;27693;50.506;30.832;2022-10-12T00:20:00;100354.57;;;8.21;64.23
42003;BME280;27693;50.506;30.832;2022-10-12T00:21:05;100358.98;;;8.18;64.55
42003;BME280;27693;50.506;30.832;2022-10-12T00:22:07;100365.03;;;8.18;64.52
42003;BME280;27693;50.506;30.832;2022-10-12T00:23:09;100358.98;;;8.18;64.80
42003;BME280;27693;50.506;30.832;2022-10-12T00:24:11;100357.31;;;8.17;65.06
42003;BME280;27693;50.506;30.832;2022-10-12T00:25:13;100358.98;;;8.18;65.05
42003;BME280;27693;50.506;30.832;2022-10-12T00:26:20;100359.75;;;8.21;65.02
42003;BME280;27693;50.506;30.832;2022-10-12T00:27:23;100355.34;;;8.25;65.03
42003;BME280;27693;50.506;30.832;2022-10-12T00:28:25;100353.50;;;8.30;64.94
42003;BME280;27693;50.506;30.832;2022-10-12T00:29:27;100358.59;;;8.33;64.79
42003;BME280;27693;50.506;30.832;2022-10-12T00:30:30;100352.45;;;8.37;64.86
42003;BME280;27693;50.506;30.832;2022-10-12T00:31:31;100353.22;;;8.41;64.81
42003;BME280;27693;50.506;30.832;2022-10-12T00:32:33;100357.54;;;8.40;64.91
42003;BME280;27693;50.506;30.832;2022-10-12T00:33:36;100357.59;;;8.39;65.15
42003;BME280;27693;50.506;30.832;2022-10-12T00:34:37;100359.25;;;8.41;65.18
42003;BME280;27693;50.506;30.832;2022-10-12T00:35:40;100356.72;;;8.38;65.30
42003;BME280;27693;50.506;30.832;2022-10-12T00:36:43;100359.31;;;8.38;65.46
42003;BME280;27693;50.506;30.832;2022-10-12T00:37:45;100358.59;;;8.33;65.61
42003;BME280;27693;50.506;30.832;2022-10-12T00:38:48;100360.36;;;8.31;65.94
42003;BME280;27693;50.506;30.832;2022-10-12T00:39:50;100362.07;;;8.32;65.99
42003;BME280;27693;50.506;30.832;2022-10-12T00:40:52;100363.78;;;8.33;65.66
42003;BME280;27693;50.506;30.832;2022-10-12T00:41:53;100360.23;;;8.37;65.84
42003;BME280;27693;50.506;30.832;2022-10-12T00:42:55;100366.20;;;8.39;65.91
42003;BME280;27693;50.506;30.832;2022-10-12T00:43:58;100368.96;;;8.33;67.02
42003;BME280;27693;50.506;30.832;2022-10-12T00:45:00;100370.73;;;8.31;67.03
42003;BME280;27693;50.506;30.832;2022-10-12T00:46:04;100365.64;;;8.28;67.55
42003;BME280;27693;50.506;30.832;2022-10-12T00:48:28;100370.11;;;8.23;68.04
42003;BME280;27693;50.506;30.832;2022-10-12T00:49:30;100370.98;;;8.22;68.47
42003;BME280;27693;50.506;30.832;2022-10-12T00:50:34;100368.45;;;8.20;68.96
42003;BME280;27693;50.506;30.832;2022-10-12T00:51:39;100365.87;;;8.19;69.00
42003;BME280;27693;50.506;30.832;2022-10-12T00:52:45;100356.23;;;8.24;69.19
42003;BME280;27693;50.506;30.832;2022-10-12T00:53:51;100364.05;;;8.22;69.42
42003;BME280;27693;50.506;30.832;2022-10-12T00:54:54;100365.87;;;8.19;70.21
42003;BME280;27693;50.506;30.832;2022-10-12T00:56:02;100351.20;;;8.18;69.71
42003;BME280;27693;50.506;30.832;2022-10-12T00:57:05;100362.48;;;8.17;70.61
42003;BME280;27693;50.506;30.832;2022-10-12T00:58:09;100359.91;;;8.15;70.87
42003;BME280;27693;50.506;30.832;2022-10-12T00:59:18;100362.48;;;8.17;70.90
42003;BME280;27693;50.506;30.832;2022-10-12T01:00:21;100364.16;;;8.18;70.97
42003;BME280;27693;50.506;30.832;2022-10-12T01:01:23;100364.27;;;8.14;71.29
42003;BME280;27693;50.506;30.832;2022-10-12T01:02:27;100361.72;;;8.13;71.64
42003;BME280;27693;50.506;30.832;2022-10-12T01:03:31;100359.08;;;8.14;71.64
42003;BME280;27693;50.506;30.832;2022-10-12T01:04:34;100363.48;;;8.11;72.14
42003;BME280;27693;50.506;30.832;2022-10-12T01:05:39;100360.84;;;8.12;72.08
42003;BME280;27693;50.506;30.832;2022-10-12T01:06:41;100363.48;;;8.11;72.46
42003;BME280;27693;50.506;30.832;2022-10-12T01:07:44;100364.27;;;8.14;72.69
42003;BME280;27693;50.506;30.832;2022-10-12T01:08:46;100364.16;;;8.18;72.72
42003;BME280;27693;50.506;30.832;2022-10-12T01:09:47;100367.67;;;8.17;73.14
42003;BME280;27693;50.506;30.832;2022-10-12T01:10:49;100363.39;;;8.14;73.45
42003;BME280;27693;50.506;30.832;2022-10-12T01:11:51;100358.25;;;8.12;73.44
42003;BME280;27693;50.506;30.832;2022-10-12T01:12:54;100361.63;;;8.16;73.42
42003;BME280;27693;50.506;30.832;2022-10-12T01:13:57;100368.63;;;8.12;73.64
42003;BME280;27693;50.506;30.832;2022-10-12T01:14:59;100370.28;;;8.15;74.01
42003;BME280;27693;50.506;30.832;2022-10-12T01:16:09;100366.76;;;8.18;73.60
42003;BME280;27693;50.506;30.832;2022-10-12T01:17:33;100368.46;;;8.19;74.13
42003;BME280;27693;50.506;30.832;2022-10-12T01:18:44;100364.94;;;8.21;74.38
42003;BME280;27693;50.506;30.832;2022-10-12T01:22:13;100364.00;;;8.24;75.04
42003;BME280;27693;50.506;30.832;2022-10-12T01:27:44;100362.39;;;8.20;76.17
42003;BME280;27693;50.506;30.832;2022-10-12T01:35:28;100370.02;;;8.26;78.04
42003;BME280;27693;50.506;30.832;2022-10-12T01:36:44;100372.03;;;8.14;78.23
42003;BME280;27693;50.506;30.832;2022-10-12T01:38:02;100365.09;;;8.15;78.30
42003;BME280;27693;50.506;30.832;2022-10-12T01:40:30;100371.21;;;8.12;78.89
42003;BME280;27693;50.506;30.832;2022-10-12T01:41:51;100380.74;;;8.12;79.37
42003;BME280;27693;50.506;30.832;2022-10-12T01:42:49;100368.67;;;8.11;79.55
42003;BME280;27693;50.506;30.832;2022-10-12T01:43:52;100378.06;;;8.15;79.47
42003;BME280;27693;50.506;30.832;2022-10-12T01:45:06;100376.39;;;8.12;79.77
42003;BME280;27693;50.506;30.832;2022-10-12T01:47:18;100375.72;;;8.06;80.69
42003;BME280;27693;50.506;30.832;2022-10-12T01:48:20;100380.03;;;8.05;80.91
42003;BME280;27693;50.506;30.832;2022-10-12T01:49:31;100367.89;;;8.07;81.01
42003;BME280;27693;50.506;30.832;2022-10-12T01:50:54;100373.96;;;8.06;81.13
42003;BME280;27693;50.506;30.832;2022-10-12T01:51:53;100377.39;;;8.07;81.48
42003;BME280;27693;50.506;30.832;2022-10-12T01:55:39;100374.84;;;8.05;81.88
42003;BME280;27693;50.506;30.832;2022-10-12T01:57:02;100376.61;;;8.03;82.15
42003;BME280;27693;50.506;30.832;2022-10-12T02:03:32;100394.95;;;7.95;83.69
42003;BME280;27693;50.506;30.832;2022-10-12T02:04:43;100386.30;;;7.96;83.70
42003;BME280;27693;50.506;30.832;2022-10-12T02:05:49;100394.02;;;7.98;83.84
42003;BME280;27693;50.506;30.832;2022-10-12T02:08:34;100381.67;;;8.09;84.09
42003;BME280;27693;50.506;30.832;2022-10-12T02:09:30;100388.95;;;7.93;84.34
42003;BME280;27693;50.506;30.832;2022-10-12T02:10:41;100389.86;;;7.92;84.55
42003;BME280;27693;50.506;30.832;2022-10-12T02:11:39;100391.62;;;7.90;84.86
42003;BME280;27693;50.506;30.832;2022-10-12T02:12:45;100391.69;;;7.87;85.17
42003;BME280;27693;50.506;30.832;2022-10-12T02:13:55;100385.67;;;7.87;85.16
42003;BME280;27693;50.506;30.832;2022-10-12T02:14:59;100394.28;;;7.87;85.23
42003;BME280;27693;50.506;30.832;2022-10-12T02:16:06;100392.56;;;7.88;85.16
42003;BME280;27693;50.506;30.832;2022-10-12T02:17:11;100403.86;;;7.83;85.71
42003;BME280;27693;50.506;30.832;2022-10-12T02:18:16;100398.67;;;7.85;85.96
42003;BME280;27693;50.506;30.832;2022-10-12T02:19:27;100409.09;;;7.82;86.28
42003;BME280;27693;50.506;30.832;2022-10-12T02:20:32;100408.25;;;7.81;86.40
42003;BME280;27693;50.506;30.832;2022-10-12T02:21:35;100404.84;;;7.79;86.56
42003;BME280;27693;50.506;30.832;2022-10-12T02:22:40;100401.36;;;7.80;86.75
42003;BME280;27693;50.506;30.832;2022-10-12T02:23:47;100408.98;;;7.87;86.41
42003;BME280;27693;50.506;30.832;2022-10-12T02:24:52;100400.44;;;7.83;86.65
42003;BME280;27693;50.506;30.832;2022-10-12T02:25:56;100410.02;;;7.79;87.03
42003;BME280;27693;50.506;30.832;2022-10-12T02:27:00;100409.13;;;7.80;87.07
42003;BME280;27693;50.506;30.832;2022-10-12T02:28:08;100416.08;;;7.78;87.22
42003;BME280;27693;50.506;30.832;2022-10-12T02:29:13;100421.36;;;7.74;87.49
42003;BME280;27693;50.506;30.832;2022-10-12T02:30:18;100413.59;;;7.74;87.82
42003;BME280;27693;50.506;30.832;2022-10-12T02:31:37;100411.88;;;7.73;87.76
42003;BME280;27693;50.506;30.832;2022-10-12T02:32:54;100422.38;;;7.68;88.14
42003;BME280;27693;50.506;30.832;2022-10-12T02:34:17;100417.24;;;7.65;88.53
42003;BME280;27693;50.506;30.832;2022-10-12T02:35:24;100421.55;;;7.66;88.65
42003;BME280;27693;50.506;30.832;2022-10-12T02:37:47;100411.00;;;7.74;89.19
42003;BME280;27693;50.506;30.832;2022-10-12T02:39:03;100403.61;;;7.57;89.51
42003;BME280;27693;50.506;30.832;2022-10-12T02:40:12;100417.34;;;7.60;89.47
42003;BME280;27693;50.506;30.832;2022-10-12T02:41:18;100416.56;;;7.57;89.69
42003;BME280;27693;50.506;30.832;2022-10-12T02:42:28;100415.63;;;7.61;89.39
42003;BME280;27693;50.506;30.832;2022-10-12T02:43:42;100410.44;;;7.61;89.54
42003;BME280;27693;50.506;30.832;2022-10-12T02:44:46;100419.09;;;7.60;89.88
42003;BME280;27693;50.506;30.832;2022-10-12T02:45:50;100416.55;;;7.58;89.95
42003;BME280;27693;50.506;30.832;2022-10-12T02:46:55;100420.86;;;7.58;90.17
42003;BME280;27693;50.506;30.832;2022-10-12T02:47:59;100419.01;;;7.63;90.30
42003;BME280;27693;50.506;30.832;2022-10-12T02:49:03;100408.64;;;7.64;89.99
42003;BME280;27693;50.506;30.832;2022-10-12T02:50:07;100408.64;;;7.64;89.99
42003;BME280;27693;50.506;30.832;2022-10-12T02:51:11;100417.15;;;7.70;89.75
42003;BME280;27693;50.506;30.832;2022-10-12T02:52:13;100418.07;;;7.67;89.79
42003;BME280;27693;50.506;30.832;2022-10-12T02:53:15;100424.97;;;7.66;89.56
42003;BME280;27693;50.506;30.832;2022-10-12T02:54:18;100419.01;;;7.63;90.04
42003;BME280;27693;50.506;30.832;2022-10-12T02:55:21;100421.64;;;7.61;89.99
42003;BME280;27693;50.506;30.832;2022-10-12T02:56:23;100419.87;;;7.63;90.36
42003;BME280;27693;50.506;30.832;2022-10-12T02:57:25;100416.46;;;7.61;90.47
42003;BME280;27693;50.506;30.832;2022-10-12T02:58:27;100420.80;;;7.61;90.71
42003;BME280;27693;50.506;30.832;2022-10-12T02:59:29;100416.46;;;7.61;90.54
42003;BME280;27693;50.506;30.832;2022-10-12T03:00:32;100427.69;;;7.62;90.55
42003;BME280;27693;50.506;30.832;2022-10-12T03:01:34;100424.96;;;7.68;90.47
42003;BME280;27693;50.506;30.832;2022-10-12T03:02:36;100424.97;;;7.66;90.46
42003;BME280;27693;50.506;30.832;2022-10-12T03:03:38;100424.97;;;7.66;90.53
42003;BME280;27693;50.506;30.832;2022-10-12T03:04:40;100429.45;;;7.60;90.44
42003;BME280;27693;50.506;30.832;2022-10-12T03:05:42;100427.78;;;7.57;91.03
42003;BME280;27693;50.506;30.832;2022-10-12T03:06:45;100440.87;;;7.49;91.67
42003;BME280;27693;50.506;30.832;2022-10-12T03:07:46;100432.27;;;7.49;91.32
42003;BME280;27693;50.506;30.832;2022-10-12T03:08:48;100428.86;;;7.47;91.89
42003;BME280;27693;50.506;30.832;2022-10-12T03:09:50;100428.80;;;7.50;91.96
42003;BME280;27693;50.506;30.832;2022-10-12T03:10:52;100435.69;;;7.51;91.97
42003;BME280;27693;50.506;30.832;2022-10-12T03:11:54;100429.86;;;7.41;92.48
42003;BME280;27693;50.506;30.832;2022-10-12T03:12:55;100430.66;;;7.43;92.36
42003;BME280;27693;50.506;30.832;2022-10-12T03:13:57;100423.63;;;7.48;92.19
42003;BME280;27693;50.506;30.832;2022-10-12T03:15:00;100436.58;;;7.48;92.17
42003;BME280;27693;50.506;30.832;2022-10-12T03:16:07;100425.20;;;7.56;92.28
42003;BME280;27693;50.506;30.832;2022-10-12T03:17:10;100426.03;;;7.58;92.23
42003;BME280;27693;50.506;30.832;2022-10-12T03:18:11;100429.78;;;7.44;92.65
42003;BME280;27693;50.506;30.832;2022-10-12T03:19:14;100438.38;;;7.46;92.93
42003;BME280;27693;50.506;30.832;2022-10-12T03:20:17;100436.58;;;7.48;92.81
42003;BME280;27693;50.506;30.832;2022-10-12T03:21:18;100431.54;;;7.42;92.93
42003;BME280;27693;50.506;30.832;2022-10-12T03:22:20;100441.89;;;7.42;92.94
42003;BME280;27693;50.506;30.832;2022-10-12T03:23:22;100434.12;;;7.44;93.07
42003;BME280;27693;50.506;30.832;2022-10-12T03:24:23;100443.51;;;7.48;93.02
42003;BME280;27693;50.506;30.832;2022-10-12T03:25:25;100440.08;;;7.47;93.00
42003;BME280;27693;50.506;30.832;2022-10-12T03:26:27;100440.92;;;7.48;92.97
42003;BME280;27693;50.506;30.832;2022-10-12T03:27:29;100441.89;;;7.42;93.30
42003;BME280;27693;50.506;30.832;2022-10-12T03:28:32;100441.05;;;7.42;93.38
42003;BME280;27693;50.506;30.832;2022-10-12T03:29:34;100447.99;;;7.40;93.88
42003;BME280;27693;50.506;30.832;2022-10-12T03:30:35;100445.39;;;7.41;93.90
42003;BME280;27693;50.506;30.832;2022-10-12T03:31:38;100448.03;;;7.38;93.98
42003;BME280;27693;50.506;30.832;2022-10-12T03:32:40;100445.39;;;7.41;93.77
42003;BME280;27693;50.506;30.832;2022-10-12T03:33:42;100449.53;;;7.48;93.60
42003;BME280;27693;50.506;30.832;2022-10-12T03:34:44;100443.69;;;7.40;93.93
42003;BME280;27693;50.506;30.832;2022-10-12T03:35:46;100454.09;;;7.37;94.22
42003;BME280;27693;50.506;30.832;2022-10-12T03:36:49;100445.39;;;7.41;94.20
42003;BME280;27693;50.506;30.832;2022-10-12T03:37:51;100454.22;;;7.31;94.75
42003;BME280;27693;50.506;30.832;2022-10-12T03:38:53;100455.89;;;7.33;94.65
42003;BME280;27693;50.506;30.832;2022-10-12T03:39:56;100445.58;;;7.32;94.98
42003;BME280;27693;50.506;30.832;2022-10-12T03:40:58;100453.38;;;7.30;94.87
42003;BME280;27693;50.506;30.832;2022-10-12T03:42:02;100455.93;;;7.32;95.07
42003;BME280;27693;50.506;30.832;2022-10-12T03:43:04;100462.94;;;7.27;95.51
42003;BME280;27693;50.506;30.832;2022-10-12T03:44:06;100456.19;;;7.19;96.02
42003;BME280;27693;50.506;30.832;2022-10-12T03:45:08;100457.89;;;7.21;96.13
42003;BME280;27693;50.506;30.832;2022-10-12T03:46:10;100455.30;;;7.21;96.22
42003;BME280;27693;50.506;30.832;2022-10-12T03:47:14;100452.72;;;7.21;96.38
42003;BME280;27693;50.506;30.832;2022-10-12T03:48:17;100452.81;;;7.14;96.80
42003;BME280;27693;50.506;30.832;2022-10-12T03:49:19;100453.59;;;7.19;96.67
42003;BME280;27693;50.506;30.832;2022-10-12T03:50:21;100450.01;;;7.25;96.20
42003;BME280;27693;50.506;30.832;2022-10-12T03:51:23;100449.88;;;7.31;95.76
42003;BME280;27693;50.506;30.832;2022-10-12T03:52:25;100447.94;;;7.43;95.88
42003;BME280;27693;50.506;30.832;2022-10-12T03:53:27;100453.96;;;7.43;95.21
42003;BME280;27693;50.506;30.832;2022-10-12T03:54:29;100443.69;;;7.40;95.06
42003;BME280;27693;50.506;30.832;2022-10-12T03:55:31;100455.84;;;7.35;95.02
42003;BME280;27693;50.506;30.832;2022-10-12T03:56:34;100447.46;;;7.24;95.98
42003;BME280;27693;50.506;30.832;2022-10-12T03:57:36;100447.46;;;7.24;95.98
42003;BME280;27693;50.506;30.832;2022-10-12T03:58:39;100452.59;;;7.27;96.00
42003;BME280;27693;50.506;30.832;2022-10-12T03:59:41;100457.77;;;7.27;96.09
42003;BME280;27693;50.506;30.832;2022-10-12T04:00:43;100460.53;;;7.17;96.61
42003;BME280;27693;50.506;30.832;2022-10-12T04:01:45;100458.86;;;7.15;97.09
42003;BME280;27693;50.506;30.832;2022-10-12T04:02:47;100457.19;;;7.12;97.44
42003;BME280;27693;50.506;30.832;2022-10-12T04:03:48;100454.52;;;7.15;97.68
42003;BME280;27693;50.506;30.832;2022-10-12T04:04:50;100456.98;;;7.22;97.56
42003;BME280;27693;50.506;30.832;2022-10-12T04:05:53;100463.07;;;7.21;97.41
42003;BME280;27693;50.506;30.832;2022-10-12T04:06:56;100459.57;;;7.22;97.21
42003;BME280;27693;50.506;30.832;2022-10-12T04:07:58;100463.95;;;7.19;97.57
42003;BME280;27693;50.506;30.832;2022-10-12T04:09:00;100461.36;;;7.19;97.55
42003;BME280;27693;50.506;30.832;2022-10-12T04:10:03;100470.00;;;7.18;97.78
42003;BME280;27693;50.506;30.832;2022-10-12T04:11:05;100465.66;;;7.21;97.70
42003;BME280;27693;50.506;30.832;2022-10-12T04:12:07;100459.70;;;7.15;97.84
42003;BME280;27693;50.506;30.832;2022-10-12T04:13:09;100461.45;;;7.15;98.08
42003;BME280;27693;50.506;30.832;2022-10-12T04:14:10;100467.63;;;7.08;98.26
42003;BME280;27693;50.506;30.832;2022-10-12T04:15:12;100463.28;;;7.08;98.54
42003;BME280;27693;50.506;30.832;2022-10-12T04:16:14;100464.99;;;7.09;98.67
42003;BME280;27693;50.506;30.832;2022-10-12T04:17:16;100461.58;;;7.07;98.74
42003;BME280;27693;50.506;30.832;2022-10-12T04:18:18;100466.79;;;7.06;98.77
42003;BME280;27693;50.506;30.832;2022-10-12T04:19:20;100463.36;;;7.05;99.01
42003;BME280;27693;50.506;30.832;2022-10-12T04:20:22;100462.37;;;7.11;98.92
42003;BME280;27693;50.506;30.832;2022-10-12T04:21:24;100459.90;;;7.06;98.93
42003;BME280;27693;50.506;30.832;2022-10-12T04:22:26;100465.98;;;7.03;99.23
42003;BME280;27693;50.506;30.832;2022-10-12T04:23:29;100469.38;;;7.06;99.30
42003;BME280;27693;50.506;30.832;2022-10-12T04:24:31;100471.92;;;7.07;99.27
42003;BME280;27693;50.506;30.832;2022-10-12T04:25:33;100475.47;;;7.03;99.49
42003;BME280;27693;50.506;30.832;2022-10-12T04:26:35;100471.05;;;7.08;99.59
42003;BME280;27693;50.506;30.832;2022-10-12T04:27:37;100468.46;;;7.08;99.41
42003;BME280;27693;50.506;30.832;2022-10-12T04:28:39;100468.42;;;7.11;99.36
42003;BME280;27693;50.506;30.832;2022-10-12T04:29:41;100473.71;;;7.05;99.52
42003;BME280;27693;50.506;30.832;2022-10-12T04:30:44;100466.83;;;7.04;99.60
42003;BME280;27693;50.506;30.832;2022-10-12T04:31:47;100470.29;;;7.03;99.63
42003;BME280;27693;50.506;30.832;2022-10-12T04:32:48;100473.75;;;7.02;99.72
42003;BME280;27693;50.506;30.832;2022-10-12T04:33:52;100470.37;;;7.00;99.84
42003;BME280;27693;50.506;30.832;2022-10-12T04:34:55;100475.54;;;7.00;99.92
42003;BME280;27693;50.506;30.832;2022-10-12T04:35:56;100480.72;;;6.98;100.00
42003;BME280;27693;50.506;30.832;2022-10-12T04:36:58;100481.59;;;6.97;100.00
42003;BME280;27693;50.506;30.832;2022-10-12T04:38:00;100472.13;;;6.98;100.00
42003;BME280;27693;50.506;30.832;2022-10-12T04:39:02;100477.94;;;7.09;100.00
42003;BME280;27693;50.506;30.832;2022-10-12T04:40:05;100475.34;;;7.09;99.98
42003;BME280;27693;50.506;30.832;2022-10-12T04:41:08;100483.23;;;7.03;100.00
42003;BME280;27693;50.506;30.832;2022-10-12T04:42:11;100475.42;;;7.04;100.00
42003;BME280;27693;50.506;30.832;2022-10-12T04:43:13;100471.84;;;7.13;99.93
42003;BME280;27693;50.506;30.832;2022-10-12T04:44:15;100471.84;;;7.13;99.93
42003;BME280;27693;50.506;30.832;2022-10-12T04:45:17;100482.11;;;7.16;99.65
42003;BME280;27693;50.506;30.832;2022-10-12T04:46:20;100488.23;;;7.12;99.65
42003;BME280;27693;50.506;30.832;2022-10-12T04:47:22;100480.52;;;7.09;99.80
42003;BME280;27693;50.506;30.832;2022-10-12T04:48:25;100479.61;;;7.12;99.79
42003;BME280;27693;50.506;30.832;2022-10-12T04:49:26;100471.92;;;7.07;99.84
42003;BME280;27693;50.506;30.832;2022-10-12T04:50:28;100471.92;;;7.07;99.84
42003;BME280;27693;50.506;30.832;2022-10-12T04:51:32;100498.51;;;7.17;99.85
42003;BME280;27693;50.506;30.832;2022-10-12T04:52:33;100493.34;;;7.15;99.94
42003;BME280;27693;50.506;30.832;2022-10-12T04:53:35;100494.22;;;7.14;99.90
42003;BME280;27693;50.506;30.832;2022-10-12T04:54:38;100494.29;;;7.11;100.00
42003;BME280;27693;50.506;30.832;2022-10-12T04:55:40;100490.11;;;7.04;100.00
42003;BME280;27693;50.506;30.832;2022-10-12T04:56:43;100503.05;;;7.04;100.00
42003;BME280;27693;50.506;30.832;2022-10-12T04:57:46;100497.87;;;7.04;100.00
42003;BME280;27693;50.506;30.832;2022-10-12T04:58:48;100501.34;;;7.03;100.00
42003;BME280;27693;50.506;30.832;2022-10-12T04:59:51;100492.74;;;7.01;100.00
42003;BME280;27693;50.506;30.832;2022-10-12T05:00:52;100497.87;;;7.04;100.00
42003;BME280;27693;50.506;30.832;2022-10-12T05:01:55;100506.47;;;7.06;100.00
42003;BME280;27693;50.506;30.832;2022-10-12T05:02:57;100496.96;;;7.07;100.00
42003;BME280;27693;50.506;30.832;2022-10-12T05:04:00;100506.40;;;7.09;100.00
42003;BME280;27693;50.506;30.832;2022-10-12T05:05:02;100508.11;;;7.10;100.00
42003;BME280;27693;50.506;30.832;2022-10-12T05:06:04;100506.40;;;7.09;100.00
42003;BME280;27693;50.506;30.832;2022-10-12T05:07:07;100516.78;;;7.08;100.00
42003;BME280;27693;50.506;30.832;2022-10-12T05:08:10;100509.94;;;7.05;100.00
42003;BME280;27693;50.506;30.832;2022-10-12T05:09:12;100519.30;;;7.11;100.00
42003;BME280;27693;50.506;30.832;2022-10-12T05:10:16;100516.70;;;7.12;100.00
42003;BME280;27693;50.506;30.832;2022-10-12T05:11:20;100507.11;;;7.17;100.00
42003;BME280;27693;50.506;30.832;2022-10-12T05:12:22;100514.83;;;7.21;100.00
42003;BME280;27693;50.506;30.832;2022-10-12T05:13:24;100504.48;;;7.21;100.00
42003;BME280;27693;50.506;30.832;2022-10-12T05:14:26;100494.13;;;7.21;100.00
42003;BME280;27693;50.506;30.832;2022-10-12T05:15:30;100494.13;;;7.21;100.00
42003;BME280;27693;50.506;30.832;2022-10-12T05:16:32;100513.84;;;7.26;100.00
42003;BME280;27693;50.506;30.832;2022-10-12T05:17:35;100515.59;;;7.26;100.00
42003;BME280;27693;50.506;30.832;2022-10-12T05:18:37;100516.39;;;7.28;100.00
42003;BME280;27693;50.506;30.832;2022-10-12T05:19:39;100521.55;;;7.29;100.00
42003;BME280;27693;50.506;30.832;2022-10-12T05:20:42;100516.39;;;7.28;100.00
42003;BME280;27693;50.506;30.832;2022-10-12T05:21:44;100516.39;;;7.28;100.00
42003;BME280;27693;50.506;30.832;2022-10-12T05:22:46;100519.77;;;7.33;100.00
42003;BME280;27693;50.506;30.832;2022-10-12T05:23:51;100520.68;;;7.30;100.00
42003;BME280;27693;50.506;30.832;2022-10-12T05:24:54;100526.66;;;7.34;100.00
42003;BME280;27693;50.506;30.832;2022-10-12T05:25:56;100525.86;;;7.30;100.00
42003;BME280;27693;50.506;30.832;2022-10-12T05:26:58;100524.02;;;7.35;100.00
42003;BME280;27693;50.506;30.832;2022-10-12T05:28:00;100524.86;;;7.36;100.00
42003;BME280;27693;50.506;30.832;2022-10-12T05:29:02;100522.27;;;7.38;100.00
42003;BME280;27693;50.506;30.832;2022-10-12T05:30:05;100526.57;;;7.37;100.00
42003;BME280;27693;50.506;30.832;2022-10-12T05:31:07;100530.88;;;7.38;100.00
42003;BME280;27693;50.506;30.832;2022-10-12T05:32:10;100535.22;;;7.36;100.00
42003;BME280;27693;50.506;30.832;2022-10-12T05:33:12;100530.04;;;7.36;100.00
42003;BME280;27693;50.506;30.832;2022-10-12T05:34:14;100519.56;;;7.42;100.00
42003;BME280;27693;50.506;30.832;2022-10-12T05:35:16;100536.76;;;7.46;100.00
42003;BME280;27693;50.506;30.832;2022-10-12T07:46:08;100631.02;;;9.35;91.12
42003;BME280;27693;50.506;30.832;2022-10-12T07:47:10;100628.30;;;9.40;91.05
42003;BME280;27693;50.506;30.832;2022-10-12T07:48:12;100632.22;;;9.55;91.11
42003;BME280;27693;50.506;30.832;2022-10-12T07:49:15;100636.17;;;9.70;91.02
42003;BME280;27693;50.506;30.832;2022-10-12T07:50:17;100630.99;;;9.68;90.24
42003;BME280;27693;50.506;30.832;2022-10-12T07:51:18;100634.81;;;9.88;90.27
42003;BME280;27693;50.506;30.832;2022-10-12T07:52:22;100629.61;;;9.88;89.24
42003;BME280;27693;50.506;30.832;2022-10-12T07:53:24;100639.73;;;9.97;88.71
42003;BME280;27693;50.506;30.832;2022-10-12T07:54:28;100632.69;;;10.01;88.30
42003;BME280;27693;50.506;30.832;2022-10-12T07:55:36;100636.95;;;10.03;87.91
42003;BME280;27693;50.506;30.832;2022-10-12T07:56:35;100639.47;;;10.06;87.77
42003;BME280;27693;50.506;30.832;2022-10-12T07:57:37;100626.53;;;10.05;87.58
42003;BME280;27693;50.506;30.832;2022-10-12T07:58:40;100634.27;;;10.06;87.70
42003;BME280;27693;50.506;30.832;2022-10-12T07:59:43;100626.16;;;10.17;87.61
42003;BME280;27693;50.506;30.832;2022-10-12T08:00:46;100636.33;;;10.25;87.23
42003;BME280;27693;50.506;30.832;2022-10-12T08:01:48;100637.20;;;10.26;86.81
42003;BME280;27693;50.506;30.832;2022-10-12T08:02:50;100636.06;;;10.34;86.94
42003;BME280;27693;50.506;30.832;2022-10-12T08:03:53;100628.75;;;10.47;85.92
42003;BME280;27693;50.506;30.832;2022-10-12T08:04:57;100630.37;;;10.51;85.68
42003;BME280;27693;50.506;30.832;2022-10-12T08:58:56;100620.55;;;11.64;75.28
42003;BME280;27693;50.506;30.832;2022-10-12T08:59:58;100625.38;;;11.75;75.77
42003;BME280;27693;50.506;30.832;2022-10-12T09:02:38;100625.30;;;12.02;75.61
42003;BME280;27693;50.506;30.832;2022-10-12T09:05:17;100634.94;;;12.23;77.07